Chaiyaphum, Thailand
Current Conditions -  °F | °C
As of 2:00 AM on Saturday 01 Nov 2014 (Local Time) from VTUK Reporting Station
Few Clouds Few Clouds  
Wind Chill: 79°   Ceiling: Unl
Heat Index: 82°   Visibility: 6mi
Dew Point: 72°   Wind: 2mph
Humidity: 78%   Direction: NA
Pressure: 29.83"   Gusts: NA
Location:  15.8°N, 102.04°E
Report Text: VTUK 311900Z VRB02KT FEW030 26/22 Q1010 A2982 NOSIG
Loading
Personal Weather Stations






























Interactive Weather Map
Tropical Storm Tracking
New forecast layout! Learn more

10-Day Weather Forecast

Advertisements
Track Severe Weather on mobile